AKDT,Max TemperatureF,Mean TemperatureF,Min TemperatureF,Max Dew PointF,MeanDew PointF,Min DewpointF,Max Humidity, Mean Humidity, Min Humidity, Max Sea Level PressureIn, Mean Sea Level PressureIn, Min Sea Level PressureIn, Max VisibilityMiles, Mean VisibilityMiles, Min VisibilityMiles, Max Wind SpeedMPH, Mean Wind SpeedMPH, Max Gust SpeedMPH,PrecipitationIn, CloudCover, Events, WindDirDegrees
2013-5-1,-6,-6,-14,-1,-9,-18,92,83,79,30.38,30.29,30.18,10,8,1,20,12,,0.00,,Snow,264
2013-5-2,-5,-1,-11,5,-4,-16,84,81,75,30.25,30.21,30.18,10,10,9,18,12,,0.00,,,258
2013-5-3,0,6,-7,10,0,-12,83,76,65,30.30,30.29,30.27,10,9,4,13,9,,0.00,,Snow,219
2013-5-4,6,-1,-11,3,-6,-16,87,82,77,30.28,30.22,30.16,10,8,0,15,4,,0.00,,Fog-Snow,103
2013-5-5,-2,6,0,5,1,-5,88,81,73,30.23,30.21,30.18,10,10,5,8,4,,0.00,,Snow,90
2013-5-6,16,10,-7,22,7,-12,89,81,71,30.17,30.15,30.13,10,10,4,12,7,,0.00,,Snow,202
2013-5-7,21,22,12,24,17,9,88,77,61,30.17,30.16,30.15,10,10,4,13,9,,0.00,,,225
2013-5-8,24,24,17,30,25,13,93,88,80,30.35,30.24,30.17,10,5,1,25,13,25,0.00,,Snow,277
2013-5-9,24,28,21,29,24,19,92,84,78,30.39,30.33,30.23,10,10,8,13,8,,0.00,,Snow,203
2013-5-10,25,26,17,28,21,13,89,80,70,30.23,30.15,30.06,10,10,9,13,8,,0.00,,,224
2013-5-11,27,25,16,27,21,13,92,81,72,30.05,29.94,29.82,10,10,10,9,5,,0.00,,,236
2013-5-12,18,24,17,29,25,16,100,94,86,29.81,29.65,29.52,10,4,0,24,8,32,0.00,,Fog-Snow,134
2013-5-13,10,18,12,16,13,9,93,83,71,29.60,29.55,29.51,10,8,2,34,20,41,0.00,,Snow,284
2013-5-14,10,14,10,13,9,7,92,89,80,29.76,29.67,29.58,10,3,0,50,37,63,0.00,,Fog-Snow,266
2013-5-15,16,16,9,19,14,6,92,87,84,29.75,29.71,29.69,10,10,9,17,11,,0.00,,,121
2013-5-16,21,19,8,28,17,6,96,90,81,29.69,29.59,29.50,10,9,1,20,11,,0.00,,Snow,112
2013-5-17,18,22,18,22,19,15,92,89,84,29.81,29.59,29.45,10,10,9,31,19,38,0.00,,,275
2013-5-18,17,18,17,16,14,13,92,85,81,30.22,29.96,29.81,10,8,2,31,18,37,0.00,,Snow,280
2013-5-19,15,20,12,20,15,9,88,79,63,30.47,30.38,30.24,10,10,9,15,10,,0.00,,Snow,181
2013-5-20,23,22,10,28,20,7,92,82,69,30.53,30.51,30.47,10,10,9,14,9,,0.00,,,108
2013-5-21,26,26,19,29,23,18,96,89,82,30.47,30.35,30.25,10,10,10,14,11,,0.00,,,105
2013-5-22,28,29,21,31,26,20,92,84,75,30.25,30.22,30.18,10,10,10,10,8,,0.00,,,100
2013-5-23,28,30,24,33,27,25,100,93,79,30.17,30.13,30.12,10,3,0,10,7,,0.00,,Fog-Snow,72
2013-5-24,27,32,26,32,29,26,100,93,79,30.22,30.18,30.14,10,4,0,7,2,,0.00,,Fog,77
2013-5-25,32,30,24,34,31,24,100,98,93,30.22,30.13,30.03,10,10,6,15,10,,0.00,,,95
2013-5-26,35,34,30,35,33,30,100,97,93,30.02,29.95,29.88,10,10,10,22,11,,0.00,,,96
2013-5-27,33,35,33,36,34,33,100,97,86,30.13,30.09,29.96,10,7,2,26,16,,0.00,,,287
2013-5-28,32,34,33,34,33,33,100,100,96,30.11,30.06,29.98,10,7,2,21,9,,0.00,,,79
2013-5-29,33,34,30,34,29,0,100,89,27,30.06,30.00,29.96,10,7,1,17,13,,0.00,,,46
2013-5-30,33,34,32,33,32,30,100,91,85,30.19,30.14,30.07,10,10,2,10,7,,0.00,,,296
2013-5-31,34,34,32,35,33,31,100,94,85,30.30,30.24,30.19,10,8,2,10,4,,0.00,,,16